createdAt,value
2023-05-16T00:00:58.422Z,0.10
2023-05-16T00:03:26.082Z,0.10
2023-05-16T00:05:53.206Z,0.30
2023-05-16T00:08:19.773Z,0.10
2023-05-16T00:10:46.272Z,0.10
2023-05-16T00:13:13.558Z,0.10
2023-05-16T00:15:40.162Z,0.10
2023-05-16T00:18:07.137Z,0.10
2023-05-16T00:20:34.681Z,0.10
2023-05-16T00:23:01.489Z,0.10
2023-05-16T00:25:28.719Z,0.10
2023-05-16T00:27:55.307Z,0.10
2023-05-16T00:30:22.703Z,0.10
2023-05-16T00:32:51.739Z,0.10
2023-05-16T00:35:18.283Z,0.10
2023-05-16T00:37:44.848Z,0.10
2023-05-16T00:40:11.639Z,0.10
2023-05-16T00:42:39.136Z,0.17
2023-05-16T00:45:06.915Z,0.10
2023-05-16T00:47:33.693Z,0.10
2023-05-16T00:50:00.723Z,0.20
2023-05-16T00:52:28.416Z,0.10
2023-05-16T00:54:55.045Z,0.10
2023-05-16T00:57:21.700Z,0.20
2023-05-16T00:59:48.637Z,0.10
2023-05-16T01:02:17.376Z,0.10
2023-05-16T01:04:46.101Z,0.10
2023-05-16T01:07:12.708Z,0.20
2023-05-16T01:09:39.424Z,0.10
2023-05-16T01:12:21.369Z,0.10
2023-05-16T01:15:08.489Z,0.10
2023-05-16T01:17:44.172Z,0.10
2023-05-16T01:20:28.209Z,0.10
2023-05-16T01:23:13.613Z,0.10
2023-05-16T01:25:58.116Z,0.10
2023-05-16T01:28:26.025Z,0.10
2023-05-16T01:30:52.655Z,1.17
2023-05-16T01:33:19.266Z,0.10
2023-05-16T01:36:21.151Z,0.10
2023-05-16T01:39:11.519Z,0.10
2023-05-16T01:41:43.966Z,0.10
2023-05-16T01:44:30.409Z,0.13
2023-05-16T01:47:01.597Z,0.10
2023-05-16T01:49:36.114Z,0.10
2023-05-16T01:52:09.876Z,0.20
2023-05-16T01:54:42.887Z,0.20
2023-05-16T01:57:10.383Z,0.20
2023-05-16T01:59:38.505Z,0.20
2023-05-16T02:02:05.465Z,0.20
2023-05-16T02:04:31.999Z,0.35
2023-05-16T02:07:00.529Z,0.13
2023-05-16T02:09:27.440Z,0.30
2023-05-16T02:11:54.313Z,0.20
2023-05-16T02:14:20.900Z,0.20
2023-05-16T02:16:48.492Z,0.10
2023-05-16T02:19:16.807Z,0.10
2023-05-16T02:21:43.449Z,0.20
2023-05-16T02:24:11.360Z,0.10
2023-05-16T02:26:37.951Z,0.20
2023-05-16T02:29:05.924Z,0.10
2023-05-16T02:31:34.842Z,0.10
2023-05-16T02:34:02.134Z,0.25
2023-05-16T02:36:29.055Z,0.10
2023-05-16T02:38:55.767Z,0.10
2023-05-16T02:41:22.962Z,0.20
2023-05-16T02:43:49.720Z,0.20
2023-05-16T02:46:30.808Z,0.13
2023-05-16T02:48:57.715Z,0.20
2023-05-16T02:51:26.375Z,0.10
2023-05-16T02:53:54.158Z,0.17
2023-05-16T02:56:21.877Z,0.15
2023-05-16T02:58:49.728Z,0.40
2023-05-16T03:01:17.252Z,0.10
2023-05-16T03:03:43.948Z,0.13
2023-05-16T03:06:10.775Z,0.20
2023-05-16T03:08:37.387Z,0.20
2023-05-16T03:11:04.211Z,0.13
2023-05-16T03:13:30.862Z,0.20
2023-05-16T03:15:58.941Z,0.10
2023-05-16T03:18:25.616Z,0.20
2023-05-16T03:20:55.073Z,0.10
2023-05-16T03:23:24.077Z,0.10
2023-05-16T03:25:50.918Z,0.20
2023-05-16T03:28:20.741Z,0.10
2023-05-16T03:30:47.343Z,0.17
2023-05-16T03:33:14.059Z,0.20
2023-05-16T03:35:40.935Z,0.20
2023-05-16T03:38:07.654Z,0.20
2023-05-16T03:40:34.269Z,0.77
2023-05-16T03:43:00.885Z,0.20
2023-05-16T03:45:27.593Z,0.10
2023-05-16T03:47:54.538Z,0.10
2023-05-16T03:50:21.161Z,0.30
2023-05-16T03:52:47.894Z,0.10
2023-05-16T03:55:15.197Z,0.13
2023-05-16T03:57:42.712Z,0.10
2023-05-16T04:00:12.536Z,0.10
2023-05-16T04:02:43.732Z,0.20
2023-05-16T04:05:11.553Z,0.20
2023-05-16T04:07:38.309Z,0.20
2023-05-16T04:10:05.888Z,0.20
2023-05-16T04:12:32.663Z,0.20
2023-05-16T04:14:59.431Z,0.13
2023-05-16T04:17:26.028Z,0.20
2023-05-16T04:19:52.687Z,0.20
2023-05-16T04:22:23.280Z,0.10
2023-05-16T04:24:50.115Z,0.10
2023-05-16T04:27:16.657Z,0.20
2023-05-16T04:29:44.289Z,0.20
2023-05-16T04:32:11.055Z,0.20
2023-05-16T04:34:39.642Z,0.20
2023-05-16T04:37:08.421Z,0.10
2023-05-16T04:39:36.535Z,0.20
2023-05-16T04:42:04.185Z,0.20
2023-05-16T04:44:30.998Z,0.17
2023-05-16T04:46:57.828Z,0.05
2023-05-16T04:49:24.459Z,0.20
2023-05-16T04:51:51.176Z,0.10
2023-05-16T04:54:17.733Z,0.20
2023-05-16T04:56:44.259Z,0.10
2023-05-16T04:59:10.901Z,0.13
2023-05-16T05:01:37.431Z,0.17
2023-05-16T05:04:04.188Z,0.10
2023-05-16T05:06:31.390Z,0.20
2023-05-16T05:08:58.136Z,0.13
2023-05-16T05:11:24.674Z,0.20
2023-05-16T05:13:52.944Z,0.20
2023-05-16T05:16:19.878Z,0.10
2023-05-16T05:18:46.636Z,0.30
2023-05-16T05:21:13.334Z,0.10
2023-05-16T05:23:40.190Z,0.20
2023-05-16T05:26:06.818Z,0.20
2023-05-16T05:28:33.635Z,0.10
2023-05-16T05:31:00.148Z,0.20
2023-05-16T05:33:30.335Z,0.20
2023-05-16T05:35:57.518Z,0.20
2023-05-16T05:38:24.051Z,0.10
2023-05-16T05:40:50.952Z,0.10
2023-05-16T05:43:17.502Z,0.20
2023-05-16T05:45:44.736Z,0.43
2023-05-16T05:48:12.573Z,0.20
2023-05-16T05:50:39.415Z,0.20
2023-05-16T05:53:05.983Z,0.20
2023-05-16T05:55:32.547Z,0.15
2023-05-16T05:57:59.173Z,0.10
2023-05-16T06:00:25.922Z,0.20
2023-05-16T06:02:52.738Z,0.20
2023-05-16T06:05:19.775Z,0.10
2023-05-16T06:07:46.330Z,0.10
2023-05-16T06:10:12.910Z,0.20
2023-05-16T06:12:39.408Z,0.55
2023-05-16T06:15:06.473Z,0.10
2023-05-16T06:17:33.003Z,1.00
2023-05-16T06:19:59.622Z,0.45
2023-05-16T06:22:26.191Z,0.20
2023-05-16T06:24:52.983Z,0.10
2023-05-16T06:27:19.494Z,0.20
2023-05-16T06:29:46.132Z,0.20
2023-05-16T06:32:13.477Z,0.20
2023-05-16T06:34:40.399Z,0.10
2023-05-16T06:37:06.925Z,0.10
2023-05-16T06:39:33.684Z,0.20
2023-05-16T06:42:00.788Z,0.20
2023-05-16T06:44:31.900Z,0.10
2023-05-16T06:46:58.770Z,0.20
2023-05-16T06:49:25.760Z,0.10
2023-05-16T06:51:52.298Z,0.10
2023-05-16T06:54:18.905Z,0.20
2023-05-16T06:56:45.754Z,0.20
2023-05-16T06:59:12.464Z,1.35
2023-05-16T07:01:39.257Z,0.20
2023-05-16T07:04:06.390Z,0.20
2023-05-16T07:06:33.471Z,0.10
2023-05-16T07:09:00.557Z,0.10
2023-05-16T07:11:27.123Z,0.17
2023-05-16T07:13:53.744Z,0.20
2023-05-16T07:16:20.554Z,0.20
2023-05-16T07:18:47.346Z,0.20
2023-05-16T07:21:14.094Z,0.20
2023-05-16T07:23:41.402Z,0.20
2023-05-16T07:26:08.093Z,0.20
2023-05-16T07:28:34.983Z,0.20
2023-05-16T07:31:01.688Z,0.20
2023-05-16T07:33:28.402Z,0.10
2023-05-16T07:36:07.949Z,0.30
2023-05-16T07:38:42.053Z,0.20
2023-05-16T07:41:08.657Z,0.28
2023-05-16T07:43:35.492Z,0.30
2023-05-16T07:46:03.062Z,0.20
2023-05-16T07:48:29.863Z,0.57
2023-05-16T07:50:56.598Z,0.70
2023-05-16T07:53:23.391Z,0.63
2023-05-16T07:55:53.273Z,0.70
2023-05-16T07:58:20.378Z,0.90
2023-05-16T08:00:47.041Z,0.80
2023-05-16T08:03:13.989Z,1.30
2023-05-16T08:05:40.773Z,0.65
2023-05-16T08:08:07.424Z,0.60
2023-05-16T08:10:34.105Z,1.42
2023-05-16T08:13:00.791Z,0.95
2023-05-16T08:15:28.715Z,1.20
2023-05-16T08:17:59.329Z,0.75
2023-05-16T08:20:26.388Z,0.90
2023-05-16T08:22:53.182Z,0.93
2023-05-16T08:25:20.451Z,0.70
2023-05-16T08:27:51.022Z,0.75
2023-05-16T08:30:17.793Z,0.85
2023-05-16T08:32:44.810Z,0.63
2023-05-16T08:35:12.889Z,0.50
2023-05-16T08:37:39.696Z,1.00
2023-05-16T08:40:09.464Z,0.60
2023-05-16T08:42:37.445Z,0.98
2023-05-16T08:45:05.758Z,1.05
2023-05-16T08:47:33.217Z,1.55
2023-05-16T08:50:02.787Z,0.77
2023-05-16T08:52:31.738Z,0.65
2023-05-16T08:55:10.691Z,0.98
2023-05-16T08:57:38.557Z,0.80
2023-05-16T09:00:12.398Z,0.93
2023-05-16T09:02:41.738Z,0.98
2023-05-16T09:05:15.885Z,0.98
2023-05-16T09:07:44.663Z,0.73
2023-05-16T09:10:12.658Z,0.80
2023-05-16T09:12:42.316Z,0.63
2023-05-16T09:15:12.459Z,0.93
2023-05-16T09:17:44.363Z,0.77
2023-05-16T09:20:18.599Z,0.70
2023-05-16T09:22:57.726Z,0.63
2023-05-16T09:27:58.824Z,0.93
2023-05-16T09:30:34.260Z,0.73
2023-05-16T09:33:01.883Z,0.82
2023-05-16T09:37:59.823Z,0.93
2023-05-16T09:40:27.880Z,0.75
2023-05-16T09:43:07.189Z,0.52
2023-05-16T09:45:39.686Z,0.88
2023-05-16T09:48:12.946Z,0.90
2023-05-16T09:50:40.271Z,0.98
2023-05-16T09:53:06.973Z,0.73
2023-05-16T09:55:34.071Z,1.58
2023-05-16T09:58:01.136Z,0.98
2023-05-16T10:00:32.997Z,0.70
2023-05-16T10:03:04.769Z,0.77
2023-05-16T10:05:33.788Z,0.73
2023-05-16T10:08:02.784Z,0.90
2023-05-16T10:10:30.079Z,0.80
2023-05-16T10:13:01.495Z,0.55
2023-05-16T10:15:30.229Z,0.70
2023-05-16T10:18:00.753Z,0.95
2023-05-16T10:20:28.129Z,0.82
2023-05-16T10:22:57.041Z,0.60
2023-05-16T10:25:45.410Z,1.02
2023-05-16T10:28:13.949Z,0.98
2023-05-16T10:30:44.148Z,0.98
2023-05-16T10:33:15.984Z,0.77
2023-05-16T10:35:44.284Z,0.60
2023-05-16T10:38:12.724Z,0.73
2023-05-16T10:40:40.664Z,0.85
2023-05-16T10:43:09.573Z,1.10
2023-05-16T10:45:42.335Z,0.90
2023-05-16T10:48:12.709Z,0.85
2023-05-16T10:50:44.607Z,0.95
2023-05-16T10:53:13.061Z,0.60
2023-05-16T10:55:40.914Z,1.05
2023-05-16T10:58:11.555Z,1.00
2023-05-16T11:00:41.274Z,0.70
2023-05-16T11:03:27.431Z,0.70
2023-05-16T11:05:59.927Z,0.63
2023-05-16T11:08:27.918Z,0.65
2023-05-16T11:11:33.274Z,0.95
2023-05-16T11:14:04.952Z,0.50
2023-05-16T11:16:35.210Z,0.65
2023-05-16T11:19:06.874Z,0.75
2023-05-16T11:22:11.816Z,0.52
2023-05-16T11:24:40.666Z,0.50
2023-05-16T11:27:11.527Z,1.00
2023-05-16T11:29:39.392Z,0.60
2023-05-16T11:32:07.284Z,1.05
2023-05-16T11:34:40.726Z,0.65
2023-05-16T11:37:11.614Z,0.70
2023-05-16T11:39:39.793Z,0.50
2023-05-16T11:42:07.772Z,1.10
2023-05-16T11:44:34.990Z,0.60
2023-05-16T11:47:04.534Z,0.95
2023-05-16T11:49:31.727Z,0.77
2023-05-16T11:51:58.462Z,0.70
2023-05-16T11:54:26.328Z,0.60
2023-05-16T11:56:53.709Z,0.68
2023-05-16T11:59:20.913Z,0.60
2023-05-16T12:01:49.176Z,0.60
2023-05-16T12:04:17.054Z,0.60
2023-05-16T12:06:44.940Z,0.65
2023-05-16T12:09:14.348Z,0.40
2023-05-16T12:11:44.113Z,0.93
2023-05-16T12:14:13.823Z,0.80
2023-05-16T12:16:46.315Z,1.10
2023-05-16T12:19:14.184Z,0.60
2023-05-16T12:21:40.900Z,1.05
2023-05-16T12:24:11.571Z,0.70
2023-05-16T12:26:40.619Z,0.80
2023-05-16T12:29:08.097Z,0.68
2023-05-16T12:31:41.645Z,0.50
2023-05-16T12:34:16.283Z,0.63
2023-05-16T12:36:43.389Z,1.45
2023-05-16T12:39:12.900Z,0.98
2023-05-16T12:41:43.251Z,0.60
2023-05-16T12:44:17.692Z,0.85
2023-05-16T12:46:50.242Z,0.40
2023-05-16T12:49:21.569Z,0.60
2023-05-16T12:51:50.006Z,1.00
2023-05-16T12:54:16.840Z,0.52
2023-05-16T12:56:44.087Z,0.65
2023-05-16T12:59:12.291Z,0.88
2023-05-16T13:01:40.525Z,0.80
2023-05-16T13:04:08.355Z,0.47
2023-05-16T13:06:55.635Z,0.50
2023-05-16T13:09:23.334Z,0.70
2023-05-16T13:11:50.711Z,0.50
2023-05-16T13:14:17.907Z,0.80
2023-05-16T13:16:44.914Z,0.63
2023-05-16T13:19:11.799Z,0.65
2023-05-16T13:21:38.471Z,0.80
2023-05-16T13:24:05.528Z,0.60
2023-05-16T13:26:32.089Z,0.90
2023-05-16T13:28:58.671Z,0.90
2023-05-16T13:31:25.413Z,1.00
2023-05-16T13:33:52.146Z,1.20
2023-05-16T13:36:18.721Z,0.68
2023-05-16T13:38:45.354Z,0.85
2023-05-16T13:41:11.971Z,0.93
2023-05-16T13:43:38.590Z,0.85
2023-05-16T13:46:05.401Z,0.60
2023-05-16T13:48:32.463Z,0.95
2023-05-16T13:50:59.052Z,0.90
2023-05-16T13:53:26.212Z,0.93
2023-05-16T13:55:52.870Z,0.60
2023-05-16T13:58:19.688Z,0.60
2023-05-16T14:00:47.687Z,1.00
2023-05-16T14:03:14.579Z,0.93
2023-05-16T14:05:41.242Z,0.50
2023-05-16T14:08:08.198Z,0.75
2023-05-16T14:10:34.749Z,1.10
2023-05-16T14:13:01.514Z,1.23
2023-05-16T14:15:28.190Z,0.77
2023-05-16T14:17:55.236Z,0.77
2023-05-16T14:20:21.883Z,0.70
2023-05-16T14:22:48.519Z,0.70
2023-05-16T14:25:15.361Z,0.90
2023-05-16T14:27:42.034Z,1.13
2023-05-16T14:30:09.445Z,1.00
2023-05-16T14:32:36.431Z,1.13
2023-05-16T14:35:05.302Z,0.98
2023-05-16T14:37:32.096Z,0.68
2023-05-16T14:39:59.645Z,1.00
2023-05-16T14:42:26.551Z,0.77
2023-05-16T14:44:53.227Z,0.80
2023-05-16T14:47:19.977Z,0.80
2023-05-16T14:49:46.702Z,0.90
2023-05-16T14:52:14.442Z,1.52
2023-05-16T14:54:41.138Z,1.10
2023-05-16T14:57:08.105Z,0.88
2023-05-16T14:59:34.780Z,2.03
2023-05-16T15:02:01.753Z,1.10
2023-05-16T15:04:28.885Z,1.00
2023-05-16T15:06:55.859Z,1.30
2023-05-16T15:09:22.614Z,0.90
2023-05-16T15:11:49.280Z,0.90
2023-05-16T15:14:16.175Z,0.80
2023-05-16T15:16:43.285Z,0.82
2023-05-16T15:19:10.028Z,1.20
2023-05-16T15:21:36.879Z,1.23
2023-05-16T15:24:03.561Z,1.30
2023-05-16T15:26:31.022Z,0.65
2023-05-16T15:28:58.359Z,0.90
2023-05-16T15:31:25.505Z,0.70
2023-05-16T15:33:52.330Z,1.15
2023-05-16T15:36:19.072Z,0.95
2023-05-16T15:38:47.512Z,1.10
2023-05-16T15:41:27.118Z,0.75
2023-05-16T15:43:59.256Z,0.80
2023-05-16T15:46:26.417Z,0.98
2023-05-16T15:48:53.574Z,1.02
2023-05-16T15:51:21.053Z,1.67
2023-05-16T15:53:48.280Z,0.90
2023-05-16T15:56:14.988Z,1.27
2023-05-16T15:58:41.926Z,1.35
2023-05-16T16:01:08.680Z,0.77
2023-05-16T16:03:35.653Z,1.15
2023-05-16T16:06:02.597Z,1.60
2023-05-16T16:08:29.360Z,1.75
2023-05-16T16:10:55.989Z,1.48
2023-05-16T16:13:24.147Z,1.73
2023-05-16T16:15:50.915Z,1.67
2023-05-16T16:18:17.626Z,1.98
2023-05-16T16:20:44.310Z,1.52
2023-05-16T16:23:11.409Z,1.50
2023-05-16T16:25:38.083Z,1.58
2023-05-16T16:28:05.580Z,1.35
2023-05-16T16:30:32.207Z,1.40
2023-05-16T16:32:58.788Z,1.48
2023-05-16T16:35:26.503Z,1.70
2023-05-16T16:38:05.714Z,1.70
2023-05-16T16:40:33.217Z,1.75
2023-05-16T16:42:59.930Z,1.98
2023-05-16T16:45:26.963Z,1.60
2023-05-16T16:47:53.759Z,1.60
2023-05-16T16:50:20.601Z,1.95
2023-05-16T16:52:47.683Z,1.92
2023-05-16T16:55:14.947Z,1.50
2023-05-16T16:57:42.495Z,1.70
2023-05-16T17:00:11.358Z,1.70
2023-05-16T17:02:38.295Z,2.05
2023-05-16T17:05:06.465Z,2.13
2023-05-16T17:07:33.266Z,1.75
2023-05-16T17:10:01.036Z,1.52
2023-05-16T17:12:28.725Z,1.48
2023-05-16T17:14:57.086Z,1.55
2023-05-16T17:17:25.117Z,1.55
2023-05-16T17:19:52.191Z,1.73
2023-05-16T17:22:19.148Z,1.40
2023-05-16T17:24:45.792Z,1.90
2023-05-16T17:27:13.425Z,1.83
2023-05-16T17:29:40.005Z,1.60
2023-05-16T17:32:06.731Z,2.00
2023-05-16T17:34:33.523Z,1.80
2023-05-16T17:37:00.283Z,1.73
2023-05-16T17:39:26.933Z,1.70
2023-05-16T17:41:59.180Z,1.30
2023-05-16T17:44:26.023Z,1.25
2023-05-16T17:46:53.609Z,0.90
2023-05-16T17:49:21.468Z,1.23
2023-05-16T17:51:54.129Z,1.40
2023-05-16T17:54:22.267Z,1.90
2023-05-16T17:56:50.751Z,1.40
2023-05-16T17:59:17.694Z,1.50
2023-05-16T18:01:44.360Z,1.52
2023-05-16T18:04:11.640Z,1.85
2023-05-16T18:06:38.823Z,1.85
2023-05-16T18:09:07.317Z,1.38
2023-05-16T18:11:34.771Z,1.23
2023-05-16T18:14:02.007Z,1.55
2023-05-16T18:16:30.574Z,1.45
2023-05-16T18:18:58.133Z,1.40
2023-05-16T18:21:25.263Z,1.45
2023-05-16T18:23:52.058Z,1.15
2023-05-16T18:26:19.321Z,1.65
2023-05-16T18:28:46.521Z,1.38
2023-05-16T18:31:13.249Z,1.20
2023-05-16T18:33:40.065Z,1.60
2023-05-16T18:36:07.056Z,2.10
2023-05-16T18:38:34.006Z,1.35
2023-05-16T18:41:01.294Z,1.38
2023-05-16T18:43:28.029Z,1.42
2023-05-16T18:45:54.574Z,1.38
2023-05-16T18:48:21.402Z,1.20
2023-05-16T18:50:48.042Z,0.80
2023-05-16T18:53:14.668Z,1.23
2023-05-16T18:55:41.169Z,1.52
2023-05-16T18:58:07.905Z,1.08
2023-05-16T19:00:34.470Z,0.80
2023-05-16T19:03:01.228Z,1.23
2023-05-16T19:05:28.408Z,1.13
2023-05-16T19:07:55.385Z,0.98
2023-05-16T19:10:22.062Z,1.17
2023-05-16T19:12:49.333Z,0.93
2023-05-16T19:15:16.115Z,0.90
2023-05-16T19:17:43.077Z,1.30
2023-05-16T19:20:10.863Z,1.08
2023-05-16T19:22:37.682Z,1.02
2023-05-16T19:25:05.441Z,0.68
2023-05-16T19:27:32.206Z,1.33
2023-05-16T19:29:58.827Z,1.00
2023-05-16T19:32:25.683Z,0.98
2023-05-16T19:34:52.603Z,1.10
2023-05-16T19:37:19.353Z,1.20
2023-05-16T19:39:45.942Z,1.08
2023-05-16T19:42:12.569Z,0.82
2023-05-16T19:44:39.087Z,1.20
2023-05-16T19:47:05.922Z,0.70
2023-05-16T19:49:32.525Z,0.90
2023-05-16T19:51:59.243Z,1.20
2023-05-16T19:54:26.179Z,0.90
2023-05-16T19:56:52.875Z,1.30
2023-05-16T19:59:20.469Z,1.05
2023-05-16T20:01:47.109Z,1.30
2023-05-16T20:04:13.862Z,0.77
2023-05-16T20:06:41.132Z,1.25
2023-05-16T20:09:07.847Z,0.90
2023-05-16T20:11:34.568Z,1.48
2023-05-16T20:14:01.128Z,1.25
2023-05-16T20:16:27.855Z,1.02
2023-05-16T20:18:54.521Z,1.05
2023-05-16T20:21:21.177Z,1.08
2023-05-16T20:23:47.770Z,1.10
2023-05-16T20:26:15.098Z,2.28
2023-05-16T20:28:42.013Z,1.08
2023-05-16T20:31:08.734Z,1.23
2023-05-16T20:33:35.594Z,2.00
2023-05-16T20:36:02.273Z,1.13
2023-05-16T20:38:28.894Z,0.68
2023-05-16T20:40:55.728Z,1.17
2023-05-16T20:43:22.609Z,0.88
2023-05-16T20:45:50.003Z,1.15
2023-05-16T20:48:16.822Z,1.05
2023-05-16T20:50:43.530Z,1.20
2023-05-16T20:53:10.120Z,1.00
2023-05-16T20:55:36.720Z,0.98
2023-05-16T20:58:03.373Z,1.70
2023-05-16T21:00:29.967Z,1.40
2023-05-16T21:02:56.546Z,1.40
2023-05-16T21:05:25.662Z,1.23
2023-05-16T21:07:53.237Z,1.10
2023-05-16T21:10:20.166Z,1.13
2023-05-16T21:12:46.789Z,0.90
2023-05-16T21:15:13.391Z,1.13
2023-05-16T21:17:41.332Z,0.82
2023-05-16T21:20:08.602Z,0.90
2023-05-16T21:22:35.493Z,1.08
2023-05-16T21:25:02.126Z,0.95
2023-05-16T21:27:28.694Z,0.88
2023-05-16T21:29:55.310Z,0.77
2023-05-16T21:32:21.930Z,0.70
2023-05-16T21:34:48.939Z,0.75
2023-05-16T21:37:16.757Z,0.88
2023-05-16T21:39:43.536Z,0.73
2023-05-16T21:42:10.237Z,1.02
2023-05-16T21:44:36.876Z,1.25
2023-05-16T21:47:03.723Z,0.90
2023-05-16T21:49:30.738Z,0.70
2023-05-16T21:51:57.370Z,1.10
2023-05-16T21:54:23.942Z,0.80
2023-05-16T21:56:50.467Z,0.80
2023-05-16T21:59:17.178Z,1.05
2023-05-16T22:01:43.678Z,0.85
2023-05-16T22:04:10.586Z,0.80
2023-05-16T22:06:37.318Z,0.93
2023-05-16T22:09:04.021Z,1.58
2023-05-16T22:11:30.601Z,1.13
2023-05-16T22:13:57.299Z,0.98
2023-05-16T22:16:23.842Z,0.90
2023-05-16T22:18:50.678Z,1.00
2023-05-16T22:21:17.372Z,1.00
2023-05-16T22:23:44.116Z,0.93
2023-05-16T22:26:10.768Z,1.08
2023-05-16T22:28:37.392Z,1.13
2023-05-16T22:31:03.935Z,1.30
2023-05-16T22:33:30.726Z,1.10
2023-05-16T22:35:57.385Z,2.00
2023-05-16T22:38:23.938Z,1.80
2023-05-16T22:40:50.540Z,1.27
2023-05-16T22:43:17.114Z,1.15
2023-05-16T22:45:43.828Z,1.60
2023-05-16T22:48:10.591Z,1.20
2023-05-16T22:50:37.170Z,1.00
2023-05-16T22:53:03.723Z,1.73
2023-05-16T22:55:30.626Z,1.77
2023-05-16T22:57:59.684Z,1.40
2023-05-16T23:00:26.266Z,1.50
2023-05-16T23:02:53.000Z,1.38
2023-05-16T23:05:19.742Z,1.55
2023-05-16T23:07:46.452Z,1.17
2023-05-16T23:10:12.985Z,1.60
2023-05-16T23:12:39.656Z,1.50
2023-05-16T23:15:09.832Z,1.52
2023-05-16T23:17:40.072Z,1.70
2023-05-16T23:20:07.502Z,1.33
2023-05-16T23:22:34.129Z,1.38
2023-05-16T23:25:00.785Z,1.55
2023-05-16T23:27:27.371Z,1.48
2023-05-16T23:29:54.014Z,1.40
2023-05-16T23:32:20.772Z,1.40
2023-05-16T23:34:47.412Z,1.33
2023-05-16T23:37:14.452Z,1.85
2023-05-16T23:39:41.244Z,1.10
2023-05-16T23:42:07.960Z,1.77
2023-05-16T23:44:34.618Z,1.38
2023-05-16T23:47:01.160Z,1.30
2023-05-16T23:49:27.780Z,1.27
2023-05-16T23:51:57.946Z,1.42
2023-05-16T23:54:27.719Z,1.83
2023-05-16T23:56:54.265Z,1.48
2023-05-16T23:59:20.935Z,1.65
